sensor_id;sensor_type;location;lat;lon;timestamp;P1;durP1;ratioP1;P2;durP2;ratioP2
13718;SDS011;6931;51.100;17.068;2024-03-08T00:00:59;36.83;;;23.98;;
13718;SDS011;6931;51.100;17.068;2024-03-08T00:03:26;37.83;;;23.90;;
13718;SDS011;6931;51.100;17.068;2024-03-08T00:05:55;35.58;;;22.73;;
13718;SDS011;6931;51.100;17.068;2024-03-08T00:08:22;34.55;;;23.42;;
13718;SDS011;6931;51.100;17.068;2024-03-08T00:10:48;38.90;;;24.50;;
13718;SDS011;6931;51.100;17.068;2024-03-08T00:13:15;36.15;;;23.80;;
13718;SDS011;6931;51.100;17.068;2024-03-08T00:15:42;39.22;;;24.00;;
13718;SDS011;6931;51.100;17.068;2024-03-08T00:18:08;34.08;;;22.90;;
13718;SDS011;6931;51.100;17.068;2024-03-08T00:20:35;36.85;;;23.67;;
13718;SDS011;6931;51.100;17.068;2024-03-08T00:23:02;35.55;;;23.17;;
13718;SDS011;6931;51.100;17.068;2024-03-08T00:25:28;36.15;;;23.67;;
13718;SDS011;6931;51.100;17.068;2024-03-08T00:27:55;32.45;;;22.77;;
13718;SDS011;6931;51.100;17.068;2024-03-08T00:30:22;35.45;;;22.67;;
13718;SDS011;6931;51.100;17.068;2024-03-08T00:32:51;41.30;;;22.88;;
13718;SDS011;6931;51.100;17.068;2024-03-08T00:35:18;31.77;;;21.60;;
13718;SDS011;6931;51.100;17.068;2024-03-08T00:37:44;41.38;;;23.27;;
13718;SDS011;6931;51.100;17.068;2024-03-08T00:40:14;36.03;;;24.13;;
13718;SDS011;6931;51.100;17.068;2024-03-08T00:42:41;38.83;;;27.30;;
13718;SDS011;6931;51.100;17.068;2024-03-08T00:45:10;37.30;;;24.08;;
13718;SDS011;6931;51.100;17.068;2024-03-08T00:47:37;37.28;;;23.48;;
13718;SDS011;6931;51.100;17.068;2024-03-08T00:50:04;38.78;;;23.15;;
13718;SDS011;6931;51.100;17.068;2024-03-08T00:52:31;37.65;;;22.95;;
13718;SDS011;6931;51.100;17.068;2024-03-08T00:54:58;36.60;;;23.20;;
13718;SDS011;6931;51.100;17.068;2024-03-08T00:57:24;36.58;;;23.20;;
13718;SDS011;6931;51.100;17.068;2024-03-08T00:59:51;36.95;;;22.67;;
13718;SDS011;6931;51.100;17.068;2024-03-08T01:02:19;39.67;;;24.25;;
13718;SDS011;6931;51.100;17.068;2024-03-08T01:04:46;39.75;;;24.80;;
13718;SDS011;6931;51.100;17.068;2024-03-08T01:07:13;37.00;;;23.58;;
13718;SDS011;6931;51.100;17.068;2024-03-08T01:09:40;38.88;;;23.92;;
13718;SDS011;6931;51.100;17.068;2024-03-08T01:12:07;35.63;;;23.75;;
13718;SDS011;6931;51.100;17.068;2024-03-08T01:14:33;38.45;;;24.23;;
13718;SDS011;6931;51.100;17.068;2024-03-08T01:17:00;38.10;;;24.05;;
13718;SDS011;6931;51.100;17.068;2024-03-08T01:19:27;37.08;;;23.65;;
13718;SDS011;6931;51.100;17.068;2024-03-08T01:21:53;36.58;;;23.52;;
13718;SDS011;6931;51.100;17.068;2024-03-08T01:24:23;37.63;;;23.90;;
13718;SDS011;6931;51.100;17.068;2024-03-08T01:26:49;38.15;;;24.60;;
13718;SDS011;6931;51.100;17.068;2024-03-08T01:29:16;37.35;;;23.77;;
13718;SDS011;6931;51.100;17.068;2024-03-08T01:31:43;37.80;;;24.33;;
13718;SDS011;6931;51.100;17.068;2024-03-08T01:34:10;38.60;;;24.38;;
13718;SDS011;6931;51.100;17.068;2024-03-08T01:36:36;38.95;;;24.23;;
13718;SDS011;6931;51.100;17.068;2024-03-08T01:39:03;40.78;;;25.35;;
13718;SDS011;6931;51.100;17.068;2024-03-08T01:41:35;41.58;;;24.52;;
13718;SDS011;6931;51.100;17.068;2024-03-08T01:44:02;43.65;;;24.42;;
13718;SDS011;6931;51.100;17.068;2024-03-08T01:46:29;39.13;;;23.42;;
13718;SDS011;6931;51.100;17.068;2024-03-08T01:48:57;42.13;;;24.83;;
13718;SDS011;6931;51.100;17.068;2024-03-08T01:51:24;37.60;;;24.38;;
13718;SDS011;6931;51.100;17.068;2024-03-08T01:53:51;36.88;;;23.75;;
13718;SDS011;6931;51.100;17.068;2024-03-08T01:56:18;37.75;;;24.08;;
13718;SDS011;6931;51.100;17.068;2024-03-08T01:58:44;37.13;;;24.45;;
13718;SDS011;6931;51.100;17.068;2024-03-08T02:01:13;33.95;;;23.48;;
13718;SDS011;6931;51.100;17.068;2024-03-08T02:03:42;31.95;;;22.35;;
13718;SDS011;6931;51.100;17.068;2024-03-08T02:06:13;37.92;;;23.33;;
13718;SDS011;6931;51.100;17.068;2024-03-08T02:08:43;39.63;;;24.85;;
13718;SDS011;6931;51.100;17.068;2024-03-08T02:11:11;35.10;;;23.70;;
13718;SDS011;6931;51.100;17.068;2024-03-08T02:13:39;35.65;;;23.45;;
13718;SDS011;6931;51.100;17.068;2024-03-08T02:16:07;37.70;;;23.55;;
13718;SDS011;6931;51.100;17.068;2024-03-08T02:18:35;35.58;;;24.23;;
13718;SDS011;6931;51.100;17.068;2024-03-08T02:21:03;39.83;;;25.10;;
13718;SDS011;6931;51.100;17.068;2024-03-08T02:23:31;38.97;;;24.85;;
13718;SDS011;6931;51.100;17.068;2024-03-08T02:25:58;41.20;;;24.35;;
13718;SDS011;6931;51.100;17.068;2024-03-08T02:28:25;40.00;;;24.98;;
13718;SDS011;6931;51.100;17.068;2024-03-08T02:30:52;42.03;;;24.33;;
13718;SDS011;6931;51.100;17.068;2024-03-08T02:33:24;35.35;;;23.48;;
13718;SDS011;6931;51.100;17.068;2024-03-08T02:35:52;37.60;;;24.98;;
13718;SDS011;6931;51.100;17.068;2024-03-08T02:38:20;51.53;;;24.58;;
13718;SDS011;6931;51.100;17.068;2024-03-08T02:40:50;40.67;;;25.63;;
13718;SDS011;6931;51.100;17.068;2024-03-08T02:43:18;39.05;;;24.25;;
13718;SDS011;6931;51.100;17.068;2024-03-08T02:45:45;36.25;;;23.13;;
13718;SDS011;6931;51.100;17.068;2024-03-08T02:48:13;35.22;;;23.55;;
13718;SDS011;6931;51.100;17.068;2024-03-08T02:50:41;35.00;;;22.88;;
13718;SDS011;6931;51.100;17.068;2024-03-08T02:53:09;36.88;;;23.15;;
13718;SDS011;6931;51.100;17.068;2024-03-08T02:55:37;38.50;;;23.70;;
13718;SDS011;6931;51.100;17.068;2024-03-08T02:58:05;34.25;;;23.15;;
13718;SDS011;6931;51.100;17.068;2024-03-08T03:00:34;39.40;;;23.00;;
13718;SDS011;6931;51.100;17.068;2024-03-08T03:03:01;36.17;;;23.40;;
13718;SDS011;6931;51.100;17.068;2024-03-08T03:05:29;35.95;;;22.58;;
13718;SDS011;6931;51.100;17.068;2024-03-08T03:07:56;36.28;;;22.05;;
13718;SDS011;6931;51.100;17.068;2024-03-08T03:10:24;37.22;;;22.02;;
13718;SDS011;6931;51.100;17.068;2024-03-08T03:12:51;39.92;;;23.10;;
13718;SDS011;6931;51.100;17.068;2024-03-08T03:15:17;35.17;;;22.98;;
13718;SDS011;6931;51.100;17.068;2024-03-08T03:17:48;33.10;;;21.73;;
13718;SDS011;6931;51.100;17.068;2024-03-08T03:20:17;35.20;;;22.80;;
13718;SDS011;6931;51.100;17.068;2024-03-08T03:22:59;34.10;;;22.50;;
13718;SDS011;6931;51.100;17.068;2024-03-08T03:25:28;36.58;;;22.38;;
13718;SDS011;6931;51.100;17.068;2024-03-08T03:28:02;34.30;;;22.33;;
13718;SDS011;6931;51.100;17.068;2024-03-08T03:30:29;36.10;;;22.33;;
13718;SDS011;6931;51.100;17.068;2024-03-08T03:33:02;37.42;;;23.75;;
13718;SDS011;6931;51.100;17.068;2024-03-08T03:35:36;36.65;;;22.80;;
13718;SDS011;6931;51.100;17.068;2024-03-08T03:38:04;34.85;;;22.02;;
13718;SDS011;6931;51.100;17.068;2024-03-08T03:40:36;37.95;;;23.13;;
13718;SDS011;6931;51.100;17.068;2024-03-08T03:43:04;34.53;;;21.95;;
13718;SDS011;6931;51.100;17.068;2024-03-08T03:45:31;36.88;;;22.52;;
13718;SDS011;6931;51.100;17.068;2024-03-08T03:48:03;40.65;;;23.60;;
13718;SDS011;6931;51.100;17.068;2024-03-08T03:50:31;36.58;;;22.58;;
13718;SDS011;6931;51.100;17.068;2024-03-08T03:53:02;38.88;;;23.60;;
13718;SDS011;6931;51.100;17.068;2024-03-08T03:55:29;40.13;;;22.67;;
13718;SDS011;6931;51.100;17.068;2024-03-08T03:57:55;35.88;;;22.55;;
13718;SDS011;6931;51.100;17.068;2024-03-08T04:00:22;33.58;;;22.17;;
13718;SDS011;6931;51.100;17.068;2024-03-08T04:02:49;37.38;;;23.33;;
13718;SDS011;6931;51.100;17.068;2024-03-08T04:05:17;39.72;;;23.40;;
13718;SDS011;6931;51.100;17.068;2024-03-08T04:07:44;35.00;;;22.23;;
13718;SDS011;6931;51.100;17.068;2024-03-08T04:10:11;37.30;;;22.58;;
13718;SDS011;6931;51.100;17.068;2024-03-08T04:12:38;37.58;;;23.55;;
13718;SDS011;6931;51.100;17.068;2024-03-08T04:15:04;40.97;;;24.30;;
13718;SDS011;6931;51.100;17.068;2024-03-08T04:17:35;37.38;;;22.90;;
13718;SDS011;6931;51.100;17.068;2024-03-08T04:20:03;36.53;;;22.65;;
13718;SDS011;6931;51.100;17.068;2024-03-08T04:22:38;36.58;;;23.05;;
13718;SDS011;6931;51.100;17.068;2024-03-08T04:25:06;38.10;;;23.20;;
13718;SDS011;6931;51.100;17.068;2024-03-08T04:27:33;37.13;;;23.98;;
13718;SDS011;6931;51.100;17.068;2024-03-08T04:30:00;42.33;;;24.05;;
13718;SDS011;6931;51.100;17.068;2024-03-08T04:32:28;37.88;;;22.95;;
13718;SDS011;6931;51.100;17.068;2024-03-08T04:34:56;35.30;;;22.25;;
13718;SDS011;6931;51.100;17.068;2024-03-08T04:37:23;40.85;;;23.55;;
13718;SDS011;6931;51.100;17.068;2024-03-08T04:39:50;44.22;;;24.33;;
13718;SDS011;6931;51.100;17.068;2024-03-08T04:42:16;37.97;;;22.73;;
13718;SDS011;6931;51.100;17.068;2024-03-08T04:44:44;67.70;;;25.52;;
13718;SDS011;6931;51.100;17.068;2024-03-08T04:47:11;40.72;;;23.05;;
13718;SDS011;6931;51.100;17.068;2024-03-08T04:49:38;36.85;;;23.50;;
13718;SDS011;6931;51.100;17.068;2024-03-08T04:52:05;39.05;;;23.80;;
13718;SDS011;6931;51.100;17.068;2024-03-08T04:54:33;39.38;;;23.00;;
13718;SDS011;6931;51.100;17.068;2024-03-08T04:57:00;37.30;;;24.58;;
13718;SDS011;6931;51.100;17.068;2024-03-08T04:59:30;45.33;;;24.55;;
13718;SDS011;6931;51.100;17.068;2024-03-08T05:01:57;40.13;;;23.10;;
13718;SDS011;6931;51.100;17.068;2024-03-08T05:04:23;37.83;;;23.02;;
13718;SDS011;6931;51.100;17.068;2024-03-08T05:06:49;38.28;;;23.65;;
13718;SDS011;6931;51.100;17.068;2024-03-08T05:09:16;38.22;;;24.20;;
13718;SDS011;6931;51.100;17.068;2024-03-08T05:11:44;39.78;;;23.90;;
13718;SDS011;6931;51.100;17.068;2024-03-08T05:14:12;33.38;;;22.35;;
13718;SDS011;6931;51.100;17.068;2024-03-08T05:16:43;40.28;;;24.48;;
13718;SDS011;6931;51.100;17.068;2024-03-08T05:19:15;39.80;;;23.65;;
13718;SDS011;6931;51.100;17.068;2024-03-08T05:21:43;39.33;;;23.17;;
13718;SDS011;6931;51.100;17.068;2024-03-08T05:24:10;38.78;;;24.38;;
13718;SDS011;6931;51.100;17.068;2024-03-08T05:26:37;39.42;;;24.33;;
13718;SDS011;6931;51.100;17.068;2024-03-08T05:29:04;40.33;;;25.23;;
13718;SDS011;6931;51.100;17.068;2024-03-08T05:31:36;36.05;;;23.30;;
13718;SDS011;6931;51.100;17.068;2024-03-08T05:34:11;36.55;;;22.70;;
13718;SDS011;6931;51.100;17.068;2024-03-08T05:36:41;37.72;;;23.40;;
13718;SDS011;6931;51.100;17.068;2024-03-08T05:39:11;45.55;;;24.42;;
13718;SDS011;6931;51.100;17.068;2024-03-08T05:41:43;37.05;;;22.95;;
13718;SDS011;6931;51.100;17.068;2024-03-08T05:44:11;38.40;;;24.70;;
13718;SDS011;6931;51.100;17.068;2024-03-08T05:46:39;38.00;;;23.80;;
13718;SDS011;6931;51.100;17.068;2024-03-08T05:49:06;37.65;;;24.70;;
13718;SDS011;6931;51.100;17.068;2024-03-08T05:51:33;54.88;;;26.95;;
13718;SDS011;6931;51.100;17.068;2024-03-08T05:54:04;54.85;;;25.42;;
13718;SDS011;6931;51.100;17.068;2024-03-08T05:56:36;50.08;;;24.52;;
13718;SDS011;6931;51.100;17.068;2024-03-08T05:59:04;36.70;;;23.85;;
13718;SDS011;6931;51.100;17.068;2024-03-08T06:01:31;41.03;;;24.30;;
13718;SDS011;6931;51.100;17.068;2024-03-08T06:03:57;36.53;;;24.20;;
13718;SDS011;6931;51.100;17.068;2024-03-08T06:06:24;49.10;;;25.00;;
13718;SDS011;6931;51.100;17.068;2024-03-08T06:08:51;36.92;;;23.02;;
13718;SDS011;6931;51.100;17.068;2024-03-08T06:11:19;35.40;;;24.05;;
13718;SDS011;6931;51.100;17.068;2024-03-08T06:13:47;39.40;;;23.55;;
13718;SDS011;6931;51.100;17.068;2024-03-08T06:16:16;35.50;;;23.25;;
13718;SDS011;6931;51.100;17.068;2024-03-08T06:18:43;42.08;;;25.13;;
13718;SDS011;6931;51.100;17.068;2024-03-08T06:21:10;40.13;;;23.92;;
13718;SDS011;6931;51.100;17.068;2024-03-08T06:23:38;42.72;;;23.63;;
13718;SDS011;6931;51.100;17.068;2024-03-08T06:26:05;41.67;;;24.45;;
13718;SDS011;6931;51.100;17.068;2024-03-08T06:28:32;39.95;;;23.90;;
13718;SDS011;6931;51.100;17.068;2024-03-08T06:30:59;36.60;;;22.83;;
13718;SDS011;6931;51.100;17.068;2024-03-08T06:33:26;42.55;;;24.48;;
13718;SDS011;6931;51.100;17.068;2024-03-08T06:35:53;42.63;;;24.15;;
13718;SDS011;6931;51.100;17.068;2024-03-08T06:38:23;35.22;;;23.38;;
13718;SDS011;6931;51.100;17.068;2024-03-08T06:40:51;39.05;;;23.92;;
13718;SDS011;6931;51.100;17.068;2024-03-08T06:43:18;44.90;;;24.80;;
13718;SDS011;6931;51.100;17.068;2024-03-08T06:45:45;34.55;;;21.75;;
13718;SDS011;6931;51.100;17.068;2024-03-08T06:48:15;41.35;;;24.00;;
13718;SDS011;6931;51.100;17.068;2024-03-08T06:50:46;36.55;;;23.95;;
13718;SDS011;6931;51.100;17.068;2024-03-08T06:53:13;41.03;;;23.15;;
13718;SDS011;6931;51.100;17.068;2024-03-08T06:55:40;34.38;;;22.58;;
13718;SDS011;6931;51.100;17.068;2024-03-08T06:58:07;33.83;;;22.17;;
13718;SDS011;6931;51.100;17.068;2024-03-08T07:00:33;39.97;;;23.63;;
13718;SDS011;6931;51.100;17.068;2024-03-08T07:03:00;36.83;;;22.90;;
13718;SDS011;6931;51.100;17.068;2024-03-08T07:05:29;37.55;;;23.80;;
13718;SDS011;6931;51.100;17.068;2024-03-08T07:07:57;39.55;;;23.23;;
13718;SDS011;6931;51.100;17.068;2024-03-08T07:10:24;34.47;;;23.10;;
13718;SDS011;6931;51.100;17.068;2024-03-08T07:12:52;35.30;;;23.10;;
13718;SDS011;6931;51.100;17.068;2024-03-08T07:15:19;34.63;;;23.92;;
13718;SDS011;6931;51.100;17.068;2024-03-08T07:17:46;43.72;;;26.48;;
13718;SDS011;6931;51.100;17.068;2024-03-08T07:20:13;44.50;;;30.70;;
13718;SDS011;6931;51.100;17.068;2024-03-08T07:22:42;41.80;;;25.63;;
13718;SDS011;6931;51.100;17.068;2024-03-08T07:25:13;47.10;;;28.40;;
13718;SDS011;6931;51.100;17.068;2024-03-08T07:27:51;60.03;;;35.13;;
13718;SDS011;6931;51.100;17.068;2024-03-08T07:30:23;45.30;;;30.35;;
13718;SDS011;6931;51.100;17.068;2024-03-08T07:33:10;72.47;;;50.45;;
13718;SDS011;6931;51.100;17.068;2024-03-08T07:35:38;51.20;;;34.35;;
13718;SDS011;6931;51.100;17.068;2024-03-08T07:38:06;51.65;;;33.22;;
13718;SDS011;6931;51.100;17.068;2024-03-08T07:40:40;44.88;;;29.15;;
13718;SDS011;6931;51.100;17.068;2024-03-08T07:43:11;45.42;;;28.13;;
13718;SDS011;6931;51.100;17.068;2024-03-08T07:45:38;36.92;;;25.88;;
13718;SDS011;6931;51.100;17.068;2024-03-08T07:48:05;42.92;;;28.48;;
13718;SDS011;6931;51.100;17.068;2024-03-08T07:50:39;39.10;;;26.77;;
13718;SDS011;6931;51.100;17.068;2024-03-08T07:53:07;35.67;;;25.30;;
13718;SDS011;6931;51.100;17.068;2024-03-08T07:55:34;46.00;;;27.05;;
13718;SDS011;6931;51.100;17.068;2024-03-08T07:58:02;33.97;;;24.40;;
13718;SDS011;6931;51.100;17.068;2024-03-08T08:00:32;36.08;;;24.55;;
13718;SDS011;6931;51.100;17.068;2024-03-08T08:02:58;34.03;;;24.38;;
13718;SDS011;6931;51.100;17.068;2024-03-08T08:05:25;37.63;;;25.63;;
13718;SDS011;6931;51.100;17.068;2024-03-08T08:07:52;42.55;;;25.92;;
13718;SDS011;6931;51.100;17.068;2024-03-08T08:10:19;39.80;;;24.23;;
13718;SDS011;6931;51.100;17.068;2024-03-08T08:12:51;36.42;;;24.63;;
13718;SDS011;6931;51.100;17.068;2024-03-08T08:15:18;34.88;;;23.88;;
13718;SDS011;6931;51.100;17.068;2024-03-08T08:17:45;32.50;;;23.38;;
13718;SDS011;6931;51.100;17.068;2024-03-08T08:20:12;35.25;;;24.85;;
13718;SDS011;6931;51.100;17.068;2024-03-08T08:22:39;35.92;;;23.63;;
13718;SDS011;6931;51.100;17.068;2024-03-08T08:25:07;31.70;;;22.48;;
13718;SDS011;6931;51.100;17.068;2024-03-08T08:27:34;33.22;;;22.63;;
13718;SDS011;6931;51.100;17.068;2024-03-08T08:30:04;36.85;;;23.40;;
13718;SDS011;6931;51.100;17.068;2024-03-08T08:32:34;34.30;;;22.00;;
13718;SDS011;6931;51.100;17.068;2024-03-08T08:35:05;32.67;;;23.60;;
13718;SDS011;6931;51.100;17.068;2024-03-08T08:37:32;32.22;;;23.52;;
13718;SDS011;6931;51.100;17.068;2024-03-08T08:40:00;40.15;;;23.02;;
13718;SDS011;6931;51.100;17.068;2024-03-08T08:42:31;34.25;;;22.08;;
13718;SDS011;6931;51.100;17.068;2024-03-08T08:44:58;28.90;;;21.30;;
13718;SDS011;6931;51.100;17.068;2024-03-08T08:47:34;31.73;;;21.73;;
13718;SDS011;6931;51.100;17.068;2024-03-08T08:50:02;33.83;;;23.45;;
13718;SDS011;6931;51.100;17.068;2024-03-08T08:52:31;32.30;;;21.85;;
13718;SDS011;6931;51.100;17.068;2024-03-08T08:54:58;30.73;;;21.85;;
13718;SDS011;6931;51.100;17.068;2024-03-08T08:57:24;32.08;;;22.52;;
13718;SDS011;6931;51.100;17.068;2024-03-08T08:59:51;36.35;;;22.45;;
13718;SDS011;6931;51.100;17.068;2024-03-08T09:02:18;32.28;;;21.92;;
13718;SDS011;6931;51.100;17.068;2024-03-08T09:04:47;33.00;;;23.95;;
13718;SDS011;6931;51.100;17.068;2024-03-08T09:07:17;36.10;;;24.35;;
13718;SDS011;6931;51.100;17.068;2024-03-08T09:09:45;32.70;;;23.33;;
13718;SDS011;6931;51.100;17.068;2024-03-08T09:12:12;34.65;;;24.23;;
13718;SDS011;6931;51.100;17.068;2024-03-08T09:14:40;33.85;;;24.63;;
13718;SDS011;6931;51.100;17.068;2024-03-08T09:17:07;34.90;;;25.90;;
13718;SDS011;6931;51.100;17.068;2024-03-08T09:19:37;30.75;;;22.13;;
13718;SDS011;6931;51.100;17.068;2024-03-08T09:22:04;31.17;;;24.33;;
13718;SDS011;6931;51.100;17.068;2024-03-08T09:24:30;48.00;;;23.75;;
13718;SDS011;6931;51.100;17.068;2024-03-08T09:26:57;30.23;;;22.42;;
13718;SDS011;6931;51.100;17.068;2024-03-08T09:29:27;28.50;;;21.70;;
13718;SDS011;6931;51.100;17.068;2024-03-08T09:31:54;38.05;;;30.35;;
13718;SDS011;6931;51.100;17.068;2024-03-08T09:34:21;30.17;;;22.17;;
13718;SDS011;6931;51.100;17.068;2024-03-08T09:36:57;38.22;;;23.52;;
13718;SDS011;6931;51.100;17.068;2024-03-08T09:39:24;32.15;;;22.05;;
13718;SDS011;6931;51.100;17.068;2024-03-08T09:41:52;29.80;;;21.70;;
13718;SDS011;6931;51.100;17.068;2024-03-08T09:44:20;31.70;;;21.95;;
13718;SDS011;6931;51.100;17.068;2024-03-08T09:46:48;28.50;;;21.00;;
13718;SDS011;6931;51.100;17.068;2024-03-08T09:49:17;61.78;;;21.48;;
13718;SDS011;6931;51.100;17.068;2024-03-08T09:51:44;27.08;;;20.60;;
13718;SDS011;6931;51.100;17.068;2024-03-08T09:54:12;24.80;;;18.83;;
13718;SDS011;6931;51.100;17.068;2024-03-08T09:56:48;26.85;;;20.13;;
13718;SDS011;6931;51.100;17.068;2024-03-08T09:59:17;26.10;;;18.42;;
13718;SDS011;6931;51.100;17.068;2024-03-08T10:01:49;25.92;;;19.02;;
13718;SDS011;6931;51.100;17.068;2024-03-08T10:04:18;25.42;;;19.35;;
13718;SDS011;6931;51.100;17.068;2024-03-08T10:06:46;24.58;;;18.27;;
13718;SDS011;6931;51.100;17.068;2024-03-08T10:09:13;24.45;;;17.70;;
13718;SDS011;6931;51.100;17.068;2024-03-08T10:11:40;24.98;;;17.67;;
13718;SDS011;6931;51.100;17.068;2024-03-08T10:14:07;22.90;;;17.40;;
13718;SDS011;6931;51.100;17.068;2024-03-08T10:16:35;25.50;;;17.30;;
13718;SDS011;6931;51.100;17.068;2024-03-08T10:19:02;23.40;;;17.17;;
13718;SDS011;6931;51.100;17.068;2024-03-08T10:21:29;22.50;;;17.20;;
13718;SDS011;6931;51.100;17.068;2024-03-08T10:23:56;21.85;;;16.88;;
13718;SDS011;6931;51.100;17.068;2024-03-08T10:26:22;59.13;;;24.48;;
13718;SDS011;6931;51.100;17.068;2024-03-08T10:28:50;26.35;;;18.52;;
13718;SDS011;6931;51.100;17.068;2024-03-08T10:31:19;19.00;;;15.45;;
13718;SDS011;6931;51.100;17.068;2024-03-08T10:33:46;24.13;;;15.63;;
13718;SDS011;6931;51.100;17.068;2024-03-08T10:36:13;35.28;;;16.33;;
13718;SDS011;6931;51.100;17.068;2024-03-08T10:38:41;18.70;;;14.52;;
13718;SDS011;6931;51.100;17.068;2024-03-08T10:41:10;17.02;;;14.00;;
13718;SDS011;6931;51.100;17.068;2024-03-08T10:43:50;20.30;;;13.98;;
13718;SDS011;6931;51.100;17.068;2024-03-08T10:49:33;18.10;;;14.00;;
13718;SDS011;6931;51.100;17.068;2024-03-08T10:52:05;16.83;;;13.30;;
13718;SDS011;6931;51.100;17.068;2024-03-08T10:54:36;29.35;;;25.20;;
13718;SDS011;6931;51.100;17.068;2024-03-08T10:57:10;16.48;;;12.93;;
13718;SDS011;6931;51.100;17.068;2024-03-08T10:59:39;20.55;;;12.80;;
13718;SDS011;6931;51.100;17.068;2024-03-08T11:02:06;17.20;;;12.02;;
13718;SDS011;6931;51.100;17.068;2024-03-08T11:04:33;18.00;;;12.95;;
13718;SDS011;6931;51.100;17.068;2024-03-08T11:07:00;20.90;;;13.05;;
13718;SDS011;6931;51.100;17.068;2024-03-08T11:09:35;17.73;;;12.82;;
13718;SDS011;6931;51.100;17.068;2024-03-08T11:12:22;31.08;;;13.63;;
13718;SDS011;6931;51.100;17.068;2024-03-08T11:14:57;18.42;;;12.73;;
13718;SDS011;6931;51.100;17.068;2024-03-08T11:19:57;16.50;;;12.55;;
13718;SDS011;6931;51.100;17.068;2024-03-08T11:22:28;14.18;;;11.15;;
13718;SDS011;6931;51.100;17.068;2024-03-08T11:25:01;17.63;;;12.05;;
13718;SDS011;6931;51.100;17.068;2024-03-08T11:27:32;16.27;;;11.80;;
13718;SDS011;6931;51.100;17.068;2024-03-08T11:30:08;13.90;;;10.65;;
13718;SDS011;6931;51.100;17.068;2024-03-08T11:32:44;14.65;;;11.13;;
13718;SDS011;6931;51.100;17.068;2024-03-08T11:35:20;14.32;;;11.10;;
13718;SDS011;6931;51.100;17.068;2024-03-08T11:37:51;15.05;;;10.88;;
13718;SDS011;6931;51.100;17.068;2024-03-08T11:40:18;16.85;;;11.77;;
13718;SDS011;6931;51.100;17.068;2024-03-08T11:42:49;14.90;;;11.48;;
13718;SDS011;6931;51.100;17.068;2024-03-08T11:45:18;13.88;;;11.20;;
13718;SDS011;6931;51.100;17.068;2024-03-08T11:47:47;16.52;;;10.63;;
13718;SDS011;6931;51.100;17.068;2024-03-08T11:50:16;14.57;;;11.38;;
13718;SDS011;6931;51.100;17.068;2024-03-08T11:52:46;21.30;;;13.75;;
13718;SDS011;6931;51.100;17.068;2024-03-08T11:55:13;15.13;;;10.45;;
13718;SDS011;6931;51.100;17.068;2024-03-08T11:57:40;19.23;;;13.60;;
13718;SDS011;6931;51.100;17.068;2024-03-08T12:00:15;11.60;;;9.88;;
13718;SDS011;6931;51.100;17.068;2024-03-08T12:03:04;16.65;;;11.63;;
13718;SDS011;6931;51.100;17.068;2024-03-08T12:05:32;18.83;;;12.90;;
13718;SDS011;6931;51.100;17.068;2024-03-08T12:08:00;38.22;;;21.20;;
13718;SDS011;6931;51.100;17.068;2024-03-08T12:10:29;49.55;;;32.08;;
13718;SDS011;6931;51.100;17.068;2024-03-08T12:12:57;11.43;;;9.52;;
13718;SDS011;6931;51.100;17.068;2024-03-08T12:15:29;49.88;;;34.63;;
13718;SDS011;6931;51.100;17.068;2024-03-08T12:18:00;17.42;;;12.80;;
13718;SDS011;6931;51.100;17.068;2024-03-08T12:20:28;20.52;;;15.23;;
13718;SDS011;6931;51.100;17.068;2024-03-08T12:22:58;19.38;;;13.35;;
13718;SDS011;6931;51.100;17.068;2024-03-08T12:25:32;16.27;;;12.50;;
13718;SDS011;6931;51.100;17.068;2024-03-08T12:28:09;12.20;;;10.60;;
13718;SDS011;6931;51.100;17.068;2024-03-08T12:30:47;15.85;;;11.63;;
13718;SDS011;6931;51.100;17.068;2024-03-08T12:33:14;16.23;;;9.85;;
13718;SDS011;6931;51.100;17.068;2024-03-08T12:35:49;13.02;;;10.43;;
13718;SDS011;6931;51.100;17.068;2024-03-08T12:38:20;14.80;;;9.88;;
13718;SDS011;6931;51.100;17.068;2024-03-08T12:41:00;14.90;;;10.65;;
13718;SDS011;6931;51.100;17.068;2024-03-08T12:43:28;15.82;;;10.82;;
13718;SDS011;6931;51.100;17.068;2024-03-08T12:45:58;12.38;;;10.43;;
13718;SDS011;6931;51.100;17.068;2024-03-08T12:48:24;13.88;;;10.98;;
13718;SDS011;6931;51.100;17.068;2024-03-08T12:50:51;31.77;;;11.80;;
13718;SDS011;6931;51.100;17.068;2024-03-08T12:53:18;12.07;;;10.13;;
13718;SDS011;6931;51.100;17.068;2024-03-08T12:55:45;14.77;;;10.82;;
13718;SDS011;6931;51.100;17.068;2024-03-08T12:58:12;14.52;;;10.63;;
13718;SDS011;6931;51.100;17.068;2024-03-08T13:00:38;12.07;;;10.13;;
13718;SDS011;6931;51.100;17.068;2024-03-08T13:03:09;12.30;;;10.45;;
13718;SDS011;6931;51.100;17.068;2024-03-08T13:05:37;10.57;;;9.13;;
13718;SDS011;6931;51.100;17.068;2024-03-08T13:08:06;11.88;;;8.98;;
13718;SDS011;6931;51.100;17.068;2024-03-08T13:10:39;13.25;;;9.60;;
13718;SDS011;6931;51.100;17.068;2024-03-08T13:13:06;11.18;;;9.73;;
13718;SDS011;6931;51.100;17.068;2024-03-08T13:15:33;13.77;;;9.95;;
13718;SDS011;6931;51.100;17.068;2024-03-08T13:18:00;10.70;;;9.50;;
13718;SDS011;6931;51.100;17.068;2024-03-08T13:20:26;12.95;;;9.75;;
13718;SDS011;6931;51.100;17.068;2024-03-08T13:23:05;15.98;;;10.02;;
13718;SDS011;6931;51.100;17.068;2024-03-08T13:25:33;9.55;;;8.55;;
13718;SDS011;6931;51.100;17.068;2024-03-08T13:28:01;13.23;;;9.80;;
13718;SDS011;6931;51.100;17.068;2024-03-08T13:30:27;10.57;;;8.95;;
13718;SDS011;6931;51.100;17.068;2024-03-08T13:32:54;12.75;;;9.88;;
13718;SDS011;6931;51.100;17.068;2024-03-08T13:35:21;11.63;;;9.52;;
13718;SDS011;6931;51.100;17.068;2024-03-08T13:37:53;12.35;;;9.80;;
13718;SDS011;6931;51.100;17.068;2024-03-08T13:40:20;20.05;;;9.75;;
13718;SDS011;6931;51.100;17.068;2024-03-08T13:42:47;11.77;;;9.40;;
13718;SDS011;6931;51.100;17.068;2024-03-08T13:45:15;12.07;;;10.50;;
13718;SDS011;6931;51.100;17.068;2024-03-08T13:47:49;13.48;;;9.98;;
13718;SDS011;6931;51.100;17.068;2024-03-08T13:50:18;13.30;;;10.88;;
13718;SDS011;6931;51.100;17.068;2024-03-08T13:52:48;12.60;;;10.20;;
13718;SDS011;6931;51.100;17.068;2024-03-08T13:55:23;13.48;;;10.98;;
13718;SDS011;6931;51.100;17.068;2024-03-08T13:57:54;39.28;;;14.18;;
13718;SDS011;6931;51.100;17.068;2024-03-08T14:00:21;16.08;;;10.75;;
13718;SDS011;6931;51.100;17.068;2024-03-08T14:02:49;14.70;;;11.13;;
13718;SDS011;6931;51.100;17.068;2024-03-08T14:05:16;13.23;;;10.25;;
13718;SDS011;6931;51.100;17.068;2024-03-08T14:07:44;11.85;;;10.43;;
13718;SDS011;6931;51.100;17.068;2024-03-08T14:10:15;13.02;;;9.95;;
13718;SDS011;6931;51.100;17.068;2024-03-08T14:12:41;11.38;;;10.18;;
13718;SDS011;6931;51.100;17.068;2024-03-08T14:15:09;12.18;;;10.70;;
13718;SDS011;6931;51.100;17.068;2024-03-08T14:17:37;11.57;;;10.38;;
13718;SDS011;6931;51.100;17.068;2024-03-08T14:20:04;12.15;;;9.80;;
13718;SDS011;6931;51.100;17.068;2024-03-08T14:22:31;13.70;;;9.50;;
13718;SDS011;6931;51.100;17.068;2024-03-08T14:24:58;11.20;;;9.93;;
13718;SDS011;6931;51.100;17.068;2024-03-08T14:27:25;15.73;;;14.10;;
13718;SDS011;6931;51.100;17.068;2024-03-08T14:29:53;11.90;;;9.82;;
13718;SDS011;6931;51.100;17.068;2024-03-08T14:32:21;10.63;;;9.38;;
13718;SDS011;6931;51.100;17.068;2024-03-08T14:34:49;12.38;;;10.68;;
13718;SDS011;6931;51.100;17.068;2024-03-08T14:37:18;13.13;;;11.05;;